sensor_id;sensor_type;location;lat;lon;timestamp;pressure;altitude;pressure_sealevel;temperature;humidity
20860;BME280;10590;48.154;11.514;2023-01-28T00:01:30;96010.25;;;-0.90;81.23
20860;BME280;10590;48.154;11.514;2023-01-28T00:06:32;96005.47;;;-0.93;82.22
20860;BME280;10590;48.154;11.514;2023-01-28T00:11:35;96002.34;;;-1.07;82.05
20860;BME280;10590;48.154;11.514;2023-01-28T00:16:36;96008.03;;;-1.10;82.55
20860;BME280;10590;48.154;11.514;2023-01-28T00:21:38;95999.94;;;-1.08;82.43
20860;BME280;10590;48.154;11.514;2023-01-28T00:26:44;95992.81;;;-1.24;82.04
20860;BME280;10590;48.154;11.514;2023-01-28T00:31:46;95994.19;;;-1.22;82.04
20860;BME280;10590;48.154;11.514;2023-01-28T00:36:48;96003.25;;;-1.13;81.71
20860;BME280;10590;48.154;11.514;2023-01-28T00:41:58;96002.72;;;-1.26;82.23
20860;BME280;10590;48.154;11.514;2023-01-28T00:47:00;95998.97;;;-1.31;83.06
20860;BME280;10590;48.154;11.514;2023-01-28T00:52:01;96001.25;;;-1.22;82.64
20860;BME280;10590;48.154;11.514;2023-01-28T00:57:05;95997.84;;;-1.35;82.33
20860;BME280;10590;48.154;11.514;2023-01-28T01:02:07;96000.69;;;-1.36;82.33
20860;BME280;10590;48.154;11.514;2023-01-28T01:07:13;95999.78;;;-1.42;82.70
20860;BME280;10590;48.154;11.514;2023-01-28T01:12:17;96008.78;;;-1.49;82.56
20860;BME280;10590;48.154;11.514;2023-01-28T01:17:18;96012.44;;;-1.62;82.72
20860;BME280;10590;48.154;11.514;2023-01-28T01:22:20;96013.25;;;-1.62;82.78
20860;BME280;10590;48.154;11.514;2023-01-28T01:27:24;96004.72;;;-1.57;83.03
20860;BME280;10590;48.154;11.514;2023-01-28T01:32:28;96014.03;;;-1.61;82.68
20860;BME280;10590;48.154;11.514;2023-01-28T01:37:30;96021.09;;;-1.62;82.38
20860;BME280;10590;48.154;11.514;2023-01-28T01:42:33;96020.75;;;-1.53;82.22
20860;BME280;10590;48.154;11.514;2023-01-28T01:47:39;96022.78;;;-1.55;82.15
20860;BME280;10590;48.154;11.514;2023-01-28T01:52:42;96015.94;;;-1.33;81.64
20860;BME280;10590;48.154;11.514;2023-01-28T01:57:46;96031.19;;;-1.42;82.41
20860;BME280;10590;48.154;11.514;2023-01-28T02:02:51;96029.25;;;-1.35;82.88
20860;BME280;10590;48.154;11.514;2023-01-28T02:07:56;96013.56;;;-1.35;82.49
20860;BME280;10590;48.154;11.514;2023-01-28T02:13:22;96027.31;;;-1.39;81.82
20860;BME280;10590;48.154;11.514;2023-01-28T02:18:26;96041.66;;;-1.30;82.37
20860;BME280;10590;48.154;11.514;2023-01-28T02:23:43;96028.81;;;-1.55;81.90
20860;BME280;10590;48.154;11.514;2023-01-28T02:28:51;96038.03;;;-1.52;82.63
20860;BME280;10590;48.154;11.514;2023-01-28T02:33:58;96025.19;;;-1.54;81.94
20860;BME280;10590;48.154;11.514;2023-01-28T02:39:08;96043.16;;;-1.46;81.62
20860;BME280;10590;48.154;11.514;2023-01-28T02:44:13;96034.50;;;-1.46;82.30
20860;BME280;10590;48.154;11.514;2023-01-28T02:49:18;96025.53;;;-1.62;82.42
20860;BME280;10590;48.154;11.514;2023-01-28T02:54:34;96043.84;;;-1.62;81.83
20860;BME280;10590;48.154;11.514;2023-01-28T02:59:43;96049.06;;;-1.62;82.30
20860;BME280;10590;48.154;11.514;2023-01-28T03:04:52;96041.78;;;-1.60;82.39
20860;BME280;10590;48.154;11.514;2023-01-28T03:10:02;96048.97;;;-1.67;81.21
20860;BME280;10590;48.154;11.514;2023-01-28T03:15:09;96052.94;;;-1.53;81.52
20860;BME280;10590;48.154;11.514;2023-01-28T03:20:35;96054.88;;;-1.60;82.05
20860;BME280;10590;48.154;11.514;2023-01-28T03:25:58;96058.53;;;-1.61;82.37
20860;BME280;10590;48.154;11.514;2023-01-28T03:31:21;96063.53;;;-1.48;82.79
20860;BME280;10590;48.154;11.514;2023-01-28T03:36:42;96064.75;;;-1.39;82.30
20860;BME280;10590;48.154;11.514;2023-01-28T03:41:58;96065.56;;;-1.38;81.89
20860;BME280;10590;48.154;11.514;2023-01-28T03:47:01;96069.09;;;-1.33;82.62
20860;BME280;10590;48.154;11.514;2023-01-28T03:52:03;96063.75;;;-1.38;81.42
20860;BME280;10590;48.154;11.514;2023-01-28T03:57:05;96077.41;;;-1.47;82.79
20860;BME280;10590;48.154;11.514;2023-01-28T04:02:09;96072.16;;;-1.36;82.78
20860;BME280;10590;48.154;11.514;2023-01-28T04:07:12;96053.84;;;-1.59;82.11
20860;BME280;10590;48.154;11.514;2023-01-28T04:12:14;96063.28;;;-1.46;81.49
20860;BME280;10590;48.154;11.514;2023-01-28T04:17:19;96087.28;;;-1.38;82.22
20860;BME280;10590;48.154;11.514;2023-01-28T04:22:20;96085.47;;;-1.49;81.47
20860;BME280;10590;48.154;11.514;2023-01-28T04:27:22;96089.34;;;-1.40;81.95
20860;BME280;10590;48.154;11.514;2023-01-28T04:32:25;96082.41;;;-1.34;81.03
20860;BME280;10590;48.154;11.514;2023-01-28T04:37:27;96096.28;;;-1.45;81.31
20860;BME280;10590;48.154;11.514;2023-01-28T04:42:28;96097.09;;;-1.45;81.40
20860;BME280;10590;48.154;11.514;2023-01-28T04:47:31;96094.47;;;-1.33;81.94
20860;BME280;10590;48.154;11.514;2023-01-28T04:52:33;96096.84;;;-1.43;81.02
20860;BME280;10590;48.154;11.514;2023-01-28T04:57:34;96113.22;;;-1.71;81.65
20860;BME280;10590;48.154;11.514;2023-01-28T05:02:38;96113.22;;;-1.71;81.67
20860;BME280;10590;48.154;11.514;2023-01-28T05:07:40;96115.50;;;-1.63;81.65
20860;BME280;10590;48.154;11.514;2023-01-28T05:12:43;96112.56;;;-1.55;81.14
20860;BME280;10590;48.154;11.514;2023-01-28T05:17:46;96102.38;;;-1.86;81.77
20860;BME280;10590;48.154;11.514;2023-01-28T05:22:48;96122.56;;;-1.64;81.65
20860;BME280;10590;48.154;11.514;2023-01-28T05:27:50;96123.25;;;-1.56;81.08
20860;BME280;10590;48.154;11.514;2023-01-28T05:32:56;96134.75;;;-1.46;81.24
20860;BME280;10590;48.154;11.514;2023-01-28T05:37:58;96140.09;;;-1.41;81.65
20860;BME280;10590;48.154;11.514;2023-01-28T05:42:59;96136.31;;;-1.56;81.25
20860;BME280;10590;48.154;11.514;2023-01-28T05:48:03;96148.84;;;-1.47;81.66
20860;BME280;10590;48.154;11.514;2023-01-28T05:53:05;96139.19;;;-1.46;81.25
20860;BME280;10590;48.154;11.514;2023-01-28T05:58:06;96155.56;;;-1.51;81.56
20860;BME280;10590;48.154;11.514;2023-01-28T06:03:10;96147.25;;;-1.59;81.17
20860;BME280;10590;48.154;11.514;2023-01-28T06:08:11;96157.50;;;-1.35;81.55
20860;BME280;10590;48.154;11.514;2023-01-28T06:13:13;96163.06;;;-1.43;81.22
20860;BME280;10590;48.154;11.514;2023-01-28T06:18:16;96156.47;;;-1.45;80.80
20860;BME280;10590;48.154;11.514;2023-01-28T06:23:17;96159.09;;;-1.45;80.96
20860;BME280;10590;48.154;11.514;2023-01-28T06:28:19;96168.78;;;-1.34;80.77
20860;BME280;10590;48.154;11.514;2023-01-28T06:33:22;96172.09;;;-1.27;80.67
20860;BME280;10590;48.154;11.514;2023-01-28T06:38:23;96184.50;;;-1.22;81.26
20860;BME280;10590;48.154;11.514;2023-01-28T06:43:25;96188.59;;;-1.15;80.63
20860;BME280;10590;48.154;11.514;2023-01-28T06:48:31;96186.66;;;-1.08;79.81
20860;BME280;10590;48.154;11.514;2023-01-28T06:53:32;96200.66;;;-1.14;80.31
20860;BME280;10590;48.154;11.514;2023-01-28T06:58:34;96193.25;;;-1.29;81.82
20860;BME280;10590;48.154;11.514;2023-01-28T07:03:37;96181.72;;;-1.51;80.82
20860;BME280;10590;48.154;11.514;2023-01-28T07:08:38;96183.56;;;-1.40;80.35
20860;BME280;10590;48.154;11.514;2023-01-28T07:13:40;96206.91;;;-1.26;80.95
20860;BME280;10590;48.154;11.514;2023-01-28T07:18:44;96204.88;;;-1.13;80.99
20860;BME280;10590;48.154;11.514;2023-01-28T07:23:45;96212.63;;;-1.06;80.02
20860;BME280;10590;48.154;11.514;2023-01-28T07:28:47;96214.56;;;-1.13;80.71
20860;BME280;10590;48.154;11.514;2023-01-28T07:33:50;96219.44;;;-1.17;81.10
20860;BME280;10590;48.154;11.514;2023-01-28T07:38:52;96220.13;;;-1.21;80.76
20860;BME280;10590;48.154;11.514;2023-01-28T07:43:53;96229.34;;;-1.19;81.04
20860;BME280;10590;48.154;11.514;2023-01-28T07:48:56;96242.22;;;-1.17;81.57
20860;BME280;10590;48.154;11.514;2023-01-28T07:53:58;96243.69;;;-1.21;81.60
20860;BME280;10590;48.154;11.514;2023-01-28T07:59:00;96253.34;;;-1.22;81.49
20860;BME280;10590;48.154;11.514;2023-01-28T08:04:03;96246.75;;;-1.24;81.32
20860;BME280;10590;48.154;11.514;2023-01-28T08:09:05;96258.91;;;-1.30;81.64
20860;BME280;10590;48.154;11.514;2023-01-28T08:14:16;96253.59;;;-1.23;81.48
20860;BME280;10590;48.154;11.514;2023-01-28T08:19:20;96228.88;;;-1.27;81.44
20860;BME280;10590;48.154;11.514;2023-01-28T08:24:21;96264.19;;;-1.07;80.90
20860;BME280;10590;48.154;11.514;2023-01-28T08:29:23;96267.75;;;-0.89;80.37
20860;BME280;10590;48.154;11.514;2023-01-28T08:34:26;96265.53;;;-1.27;81.05
20860;BME280;10590;48.154;11.514;2023-01-28T08:45:26;96287.59;;;-0.82;79.96
20860;BME280;10590;48.154;11.514;2023-01-28T08:50:30;96285.16;;;-0.95;79.48
20860;BME280;10590;48.154;11.514;2023-01-28T08:55:33;96290.91;;;-0.86;80.58
20860;BME280;10590;48.154;11.514;2023-01-28T09:00:35;96290.00;;;-0.69;78.68
20860;BME280;10590;48.154;11.514;2023-01-28T09:05:38;96286.25;;;-0.61;79.33
20860;BME280;10590;48.154;11.514;2023-01-28T09:10:40;96296.94;;;-0.39;78.26
20860;BME280;10590;48.154;11.514;2023-01-28T09:15:42;96298.53;;;-0.26;77.69
20860;BME280;10590;48.154;11.514;2023-01-28T09:20:45;96288.84;;;-0.26;78.62
20860;BME280;10590;48.154;11.514;2023-01-28T09:25:47;96286.31;;;-0.21;77.30
20860;BME280;10590;48.154;11.514;2023-01-28T09:30:49;96310.28;;;-0.29;77.55
20860;BME280;10590;48.154;11.514;2023-01-28T09:35:52;96305.56;;;-0.15;77.06
20860;BME280;10590;48.154;11.514;2023-01-28T09:40:54;96303.84;;;-0.10;75.79
20860;BME280;10590;48.154;11.514;2023-01-28T09:45:57;96298.78;;;0.24;75.53
20860;BME280;10590;48.154;11.514;2023-01-28T09:51:02;96301.78;;;0.16;75.79
20860;BME280;10590;48.154;11.514;2023-01-28T09:56:05;96300.31;;;0.48;74.24
20860;BME280;10590;48.154;11.514;2023-01-28T10:01:26;96283.22;;;0.06;75.94
20860;BME280;10590;48.154;11.514;2023-01-28T10:06:41;96301.28;;;0.30;75.13
20860;BME280;10590;48.154;11.514;2023-01-28T10:11:56;96295.97;;;0.71;74.11
20860;BME280;10590;48.154;11.514;2023-01-28T10:17:07;96283.03;;;0.81;72.57
20860;BME280;10590;48.154;11.514;2023-01-28T10:22:15;96282.09;;;1.54;71.84
20860;BME280;10590;48.154;11.514;2023-01-28T10:27:21;96278.13;;;1.90;69.80
20860;BME280;10590;48.154;11.514;2023-01-28T10:32:29;96284.44;;;1.89;68.33
20860;BME280;10590;48.154;11.514;2023-01-28T10:37:34;96280.94;;;1.67;69.31
20860;BME280;10590;48.154;11.514;2023-01-28T10:42:37;96280.44;;;1.14;68.18
20860;BME280;10590;48.154;11.514;2023-01-28T10:47:50;96279.00;;;0.90;69.33
20860;BME280;10590;48.154;11.514;2023-01-28T10:52:56;96275.47;;;1.51;70.16
20860;BME280;10590;48.154;11.514;2023-01-28T10:57:58;96280.50;;;1.91;68.72
20860;BME280;10590;48.154;11.514;2023-01-28T11:03:25;96275.88;;;1.99;67.59
20860;BME280;10590;48.154;11.514;2023-01-28T11:08:30;96270.34;;;2.22;66.99
20860;BME280;10590;48.154;11.514;2023-01-28T11:13:32;96276.47;;;2.06;65.26
20860;BME280;10590;48.154;11.514;2023-01-28T11:18:37;96275.63;;;2.22;66.20
20860;BME280;10590;48.154;11.514;2023-01-28T11:23:52;96270.19;;;2.07;67.55
20860;BME280;10590;48.154;11.514;2023-01-28T11:28:55;96271.28;;;1.72;64.26
20860;BME280;10590;48.154;11.514;2023-01-28T11:33:58;96285.91;;;2.23;64.14
20860;BME280;10590;48.154;11.514;2023-01-28T11:39:13;96283.75;;;1.99;64.00
20860;BME280;10590;48.154;11.514;2023-01-28T11:44:19;96280.88;;;2.22;66.09
20860;BME280;10590;48.154;11.514;2023-01-28T11:49:27;96285.28;;;1.95;65.58
20860;BME280;10590;48.154;11.514;2023-01-28T11:54:42;96264.91;;;1.30;65.53
20860;BME280;10590;48.154;11.514;2023-01-28T11:59:58;96268.75;;;1.60;67.62
20860;BME280;10590;48.154;11.514;2023-01-28T12:05:15;96262.16;;;1.58;67.36
20860;BME280;10590;48.154;11.514;2023-01-28T12:10:26;96275.84;;;1.60;68.75
20860;BME280;10590;48.154;11.514;2023-01-28T12:16:03;96272.28;;;1.49;70.87
20860;BME280;10590;48.154;11.514;2023-01-28T12:21:15;96271.59;;;1.20;72.89
20860;BME280;10590;48.154;11.514;2023-01-28T12:26:30;96279.16;;;0.55;74.53
20860;BME280;10590;48.154;11.514;2023-01-28T12:31:49;96272.28;;;0.37;75.81
20860;BME280;10590;48.154;11.514;2023-01-28T12:37:00;96271.34;;;0.43;74.59
20860;BME280;10590;48.154;11.514;2023-01-28T12:42:09;96268.94;;;0.42;74.10
20860;BME280;10590;48.154;11.514;2023-01-28T12:47:17;96280.06;;;0.32;74.14
20860;BME280;10590;48.154;11.514;2023-01-28T12:52:22;96276.88;;;0.30;73.33
20860;BME280;10590;48.154;11.514;2023-01-28T12:57:28;96286.78;;;0.28;74.12
20860;BME280;10590;48.154;11.514;2023-01-28T13:02:33;96280.59;;;0.34;73.27
20860;BME280;10590;48.154;11.514;2023-01-28T13:07:39;96279.72;;;0.28;74.33
20860;BME280;10590;48.154;11.514;2023-01-28T13:12:44;96272.22;;;0.49;72.91
20860;BME280;10590;48.154;11.514;2023-01-28T13:17:55;96278.34;;;0.54;71.99
20860;BME280;10590;48.154;11.514;2023-01-28T13:23:00;96276.75;;;0.53;71.62
20860;BME280;10590;48.154;11.514;2023-01-28T13:28:05;96286.75;;;0.68;71.06
20860;BME280;10590;48.154;11.514;2023-01-28T13:33:25;96294.94;;;1.00;69.50
20860;BME280;10590;48.154;11.514;2023-01-28T13:38:28;96291.56;;;0.88;69.38
20860;BME280;10590;48.154;11.514;2023-01-28T13:43:38;96295.97;;;0.99;69.37
20860;BME280;10590;48.154;11.514;2023-01-28T13:48:44;96312.38;;;1.23;67.91
20860;BME280;10590;48.154;11.514;2023-01-28T13:53:50;96304.88;;;0.98;67.81
20860;BME280;10590;48.154;11.514;2023-01-28T13:59:17;96313.88;;;0.74;71.61
20860;BME280;10590;48.154;11.514;2023-01-28T14:04:42;96314.50;;;0.64;72.68
20860;BME280;10590;48.154;11.514;2023-01-28T14:10:02;96318.69;;;0.48;74.12
20860;BME280;10590;48.154;11.514;2023-01-28T14:15:21;96322.34;;;0.47;74.26
20860;BME280;10590;48.154;11.514;2023-01-28T14:20:30;96332.09;;;0.63;73.88
20860;BME280;10590;48.154;11.514;2023-01-28T14:25:42;96327.41;;;0.66;74.82
20860;BME280;10590;48.154;11.514;2023-01-28T14:30:53;96329.75;;;0.50;74.90
20860;BME280;10590;48.154;11.514;2023-01-28T14:35:56;96335.00;;;0.50;73.79
20860;BME280;10590;48.154;11.514;2023-01-28T14:40:58;96351.53;;;0.51;74.81
20860;BME280;10590;48.154;11.514;2023-01-28T14:46:17;96343.75;;;0.56;74.22
20860;BME280;10590;48.154;11.514;2023-01-28T14:51:39;96349.94;;;0.50;74.18
20860;BME280;10590;48.154;11.514;2023-01-28T14:56:56;96342.50;;;0.58;75.63
20860;BME280;10590;48.154;11.514;2023-01-28T15:02:01;96355.81;;;0.69;74.07
20860;BME280;10590;48.154;11.514;2023-01-28T15:07:15;96354.03;;;0.57;75.19
20860;BME280;10590;48.154;11.514;2023-01-28T15:12:17;96364.91;;;0.49;73.18
20860;BME280;10590;48.154;11.514;2023-01-28T15:17:24;96366.75;;;0.77;71.85
20860;BME280;10590;48.154;11.514;2023-01-28T15:22:27;96367.91;;;0.41;71.64
20860;BME280;10590;48.154;11.514;2023-01-28T15:27:29;96361.56;;;0.54;71.45
20860;BME280;10590;48.154;11.514;2023-01-28T15:32:33;96365.81;;;0.55;71.62
20860;BME280;10590;48.154;11.514;2023-01-28T15:37:35;96356.25;;;0.37;72.26
20860;BME280;10590;48.154;11.514;2023-01-28T15:42:37;96365.22;;;0.53;71.82
20860;BME280;10590;48.154;11.514;2023-01-28T15:47:40;96399.03;;;0.49;73.08
20860;BME280;10590;48.154;11.514;2023-01-28T15:52:42;96397.47;;;0.37;73.57
20860;BME280;10590;48.154;11.514;2023-01-28T15:57:45;96407.84;;;0.31;72.60
20860;BME280;10590;48.154;11.514;2023-01-28T16:02:50;96401.47;;;0.39;73.02
20860;BME280;10590;48.154;11.514;2023-01-28T16:07:52;96400.44;;;0.40;74.49
20860;BME280;10590;48.154;11.514;2023-01-28T16:13:00;96412.78;;;0.28;73.58
20860;BME280;10590;48.154;11.514;2023-01-28T16:18:05;96409.22;;;0.34;74.33
20860;BME280;10590;48.154;11.514;2023-01-28T16:23:19;96416.75;;;0.30;75.44
20860;BME280;10590;48.154;11.514;2023-01-28T16:28:21;96424.88;;;0.17;76.41
20860;BME280;10590;48.154;11.514;2023-01-28T16:33:24;96431.25;;;0.21;77.83
20860;BME280;10590;48.154;11.514;2023-01-28T16:38:26;96417.91;;;-0.01;78.82
20860;BME280;10590;48.154;11.514;2023-01-28T16:43:28;96436.88;;;0.02;79.71
20860;BME280;10590;48.154;11.514;2023-01-28T16:48:31;96437.53;;;0.09;79.21
20860;BME280;10590;48.154;11.514;2023-01-28T16:53:33;96450.22;;;0.12;78.08
20860;BME280;10590;48.154;11.514;2023-01-28T16:58:35;96451.81;;;0.13;78.37
20860;BME280;10590;48.154;11.514;2023-01-28T17:03:38;96456.38;;;0.06;79.64
20860;BME280;10590;48.154;11.514;2023-01-28T17:08:40;96453.75;;;0.06;79.29
20860;BME280;10590;48.154;11.514;2023-01-28T17:13:41;96459.22;;;0.16;78.31
20860;BME280;10590;48.154;11.514;2023-01-28T17:18:48;96461.84;;;0.04;81.05
20860;BME280;10590;48.154;11.514;2023-01-28T17:23:50;96471.09;;;0.07;81.19
20860;BME280;10590;48.154;11.514;2023-01-28T17:28:52;96468.34;;;0.02;82.51
20860;BME280;10590;48.154;11.514;2023-01-28T17:33:57;96474.38;;;0.02;82.24
20860;BME280;10590;48.154;11.514;2023-01-28T17:38:59;96466.94;;;-0.01;81.76
20860;BME280;10590;48.154;11.514;2023-01-28T17:44:00;96470.38;;;-0.01;82.51
20860;BME280;10590;48.154;11.514;2023-01-28T17:49:05;96482.78;;;-0.08;83.77
20860;BME280;10590;48.154;11.514;2023-01-28T17:54:06;96481.75;;;-0.07;83.23
20860;BME280;10590;48.154;11.514;2023-01-28T17:59:10;96485.28;;;-0.13;83.39
20860;BME280;10590;48.154;11.514;2023-01-28T18:04:14;96487.00;;;-0.07;83.22
20860;BME280;10590;48.154;11.514;2023-01-28T18:09:16;96487.34;;;-0.03;83.11
20860;BME280;10590;48.154;11.514;2023-01-28T18:14:18;96491.34;;;-0.01;82.39
20860;BME280;10590;48.154;11.514;2023-01-28T18:19:21;96492.97;;;0.01;83.25
20860;BME280;10590;48.154;11.514;2023-01-28T18:24:24;96495.16;;;0.04;83.51
20860;BME280;10590;48.154;11.514;2023-01-28T18:29:27;96504.97;;;0.08;83.07
20860;BME280;10590;48.154;11.514;2023-01-28T18:34:30;96493.50;;;-0.21;83.32
20860;BME280;10590;48.154;11.514;2023-01-28T18:39:32;96498.88;;;-0.04;83.19
20860;BME280;10590;48.154;11.514;2023-01-28T18:44:33;96504.84;;;0.03;82.69
20860;BME280;10590;48.154;11.514;2023-01-28T18:49:39;96507.69;;;0.02;83.11
20860;BME280;10590;48.154;11.514;2023-01-28T18:54:41;96509.94;;;-0.02;82.92
20860;BME280;10590;48.154;11.514;2023-01-28T18:59:42;96509.41;;;0.08;82.58
20860;BME280;10590;48.154;11.514;2023-01-28T19:04:46;96508.13;;;-0.02;83.42
20860;BME280;10590;48.154;11.514;2023-01-28T19:09:48;96513.28;;;0.05;82.96
20860;BME280;10590;48.154;11.514;2023-01-28T19:14:49;96507.47;;;0.03;82.79
20860;BME280;10590;48.154;11.514;2023-01-28T19:19:52;96507.03;;;0.18;81.82
20860;BME280;10590;48.154;11.514;2023-01-28T19:24:54;96507.25;;;0.05;83.24
20860;BME280;10590;48.154;11.514;2023-01-28T19:29:56;96504.63;;;0.05;82.63
20860;BME280;10590;48.154;11.514;2023-01-28T19:34:59;96509.53;;;0.01;83.43
20860;BME280;10590;48.154;11.514;2023-01-28T19:40:00;96507.03;;;0.06;82.36
20860;BME280;10590;48.154;11.514;2023-01-28T19:45:03;96505.31;;;0.00;82.95
20860;BME280;10590;48.154;11.514;2023-01-28T19:50:08;96507.66;;;-0.10;83.28
20860;BME280;10590;48.154;11.514;2023-01-28T19:55:10;96506.66;;;0.03;82.87
20860;BME280;10590;48.154;11.514;2023-01-28T20:00:17;96512.94;;;0.02;82.72
20860;BME280;10590;48.154;11.514;2023-01-28T20:05:20;96515.34;;;0.15;81.57
20860;BME280;10590;48.154;11.514;2023-01-28T20:10:22;96495.44;;;-0.05;83.10
20860;BME280;10590;48.154;11.514;2023-01-28T20:15:23;96505.06;;;0.02;82.49
20860;BME280;10590;48.154;11.514;2023-01-28T20:20:26;96505.31;;;0.12;81.54
20860;BME280;10590;48.154;11.514;2023-01-28T20:25:28;96513.66;;;0.32;80.84
20860;BME280;10590;48.154;11.514;2023-01-28T20:30:29;96516.84;;;0.34;79.61
20860;BME280;10590;48.154;11.514;2023-01-28T20:35:32;96520.72;;;0.20;79.88
20860;BME280;10590;48.154;11.514;2023-01-28T20:40:35;96517.41;;;0.13;81.41
20860;BME280;10590;48.154;11.514;2023-01-28T20:45:37;96522.19;;;0.16;82.07
20860;BME280;10590;48.154;11.514;2023-01-28T20:50:40;96527.78;;;0.19;81.52
20860;BME280;10590;48.154;11.514;2023-01-28T20:55:41;96524.94;;;0.21;81.70
20860;BME280;10590;48.154;11.514;2023-01-28T21:00:43;96529.03;;;0.17;81.86
20860;BME280;10590;48.154;11.514;2023-01-28T21:05:48;96540.56;;;0.27;81.43
20860;BME280;10590;48.154;11.514;2023-01-28T21:10:51;96537.50;;;0.30;81.26
20860;BME280;10590;48.154;11.514;2023-01-28T21:15:55;96545.13;;;0.20;81.46
20860;BME280;10590;48.154;11.514;2023-01-28T21:21:04;96542.84;;;0.12;81.79
20860;BME280;10590;48.154;11.514;2023-01-28T21:26:08;96543.06;;;0.11;82.39
20860;BME280;10590;48.154;11.514;2023-01-28T21:31:14;96547.75;;;0.09;82.68
20860;BME280;10590;48.154;11.514;2023-01-28T21:36:18;96556.09;;;0.17;82.56
20860;BME280;10590;48.154;11.514;2023-01-28T21:41:20;96547.28;;;0.12;82.05
20860;BME280;10590;48.154;11.514;2023-01-28T21:46:23;96565.34;;;0.20;81.37
20860;BME280;10590;48.154;11.514;2023-01-28T21:51:27;96550.81;;;0.06;82.77
20860;BME280;10590;48.154;11.514;2023-01-28T21:56:46;96562.81;;;0.25;82.46
20860;BME280;10590;48.154;11.514;2023-01-28T22:01:48;96561.56;;;0.16;83.38
20860;BME280;10590;48.154;11.514;2023-01-28T22:06:53;96553.31;;;0.01;82.66
20860;BME280;10590;48.154;11.514;2023-01-28T22:11:57;96562.34;;;0.05;83.90
20860;BME280;10590;48.154;11.514;2023-01-28T22:16:58;96558.63;;;-0.06;83.72
20860;BME280;10590;48.154;11.514;2023-01-28T22:22:02;96571.81;;;0.06;83.16
20860;BME280;10590;48.154;11.514;2023-01-28T22:27:04;96570.00;;;0.18;82.75
20860;BME280;10590;48.154;11.514;2023-01-28T22:32:07;96563.84;;;0.24;82.19
20860;BME280;10590;48.154;11.514;2023-01-28T22:37:10;96561.59;;;-0.03;83.97
20860;BME280;10590;48.154;11.514;2023-01-28T22:42:13;96549.91;;;0.00;83.32
20860;BME280;10590;48.154;11.514;2023-01-28T22:47:15;96548.19;;;0.06;82.86
20860;BME280;10590;48.154;11.514;2023-01-28T22:52:23;96536.41;;;-0.04;82.47
20860;BME280;10590;48.154;11.514;2023-01-28T22:57:26;96543.28;;;0.09;82.90
20860;BME280;10590;48.154;11.514;2023-01-28T23:02:28;96548.03;;;-0.11;83.53
20860;BME280;10590;48.154;11.514;2023-01-28T23:07:32;96552.53;;;0.00;83.57
20860;BME280;10590;48.154;11.514;2023-01-28T23:12:45;96550.03;;;0.05;83.01
20860;BME280;10590;48.154;11.514;2023-01-28T23:17:52;96557.91;;;0.17;82.63
20860;BME280;10590;48.154;11.514;2023-01-28T23:23:15;96557.00;;;0.11;82.46
20860;BME280;10590;48.154;11.514;2023-01-28T23:28:35;96548.31;;;0.11;82.86
20860;BME280;10590;48.154;11.514;2023-01-28T23:33:37;96551.50;;;0.13;83.00
20860;BME280;10590;48.154;11.514;2023-01-28T23:38:40;96548.91;;;0.13;82.23
20860;BME280;10590;48.154;11.514;2023-01-28T23:43:42;96544.44;;;0.13;82.73
20860;BME280;10590;48.154;11.514;2023-01-28T23:48:44;96548.66;;;0.03;82.79
20860;BME280;10590;48.154;11.514;2023-01-28T23:53:47;96540.38;;;-0.13;83.07
20860;BME280;10590;48.154;11.514;2023-01-28T23:58:50;96526.66;;;-0.26;82.84
